createdAt,value
2018-07-29T00:00:16.999Z,19.8
2018-07-29T00:01:19.033Z,19.7
2018-07-29T00:02:21.082Z,19.7
2018-07-29T00:03:23.121Z,19.8
2018-07-29T00:04:25.462Z,19.8
2018-07-29T00:05:27.516Z,19.8
2018-07-29T00:06:29.558Z,19.7
2018-07-29T00:07:31.882Z,19.7
2018-07-29T00:08:33.927Z,19.7
2018-07-29T00:09:35.978Z,19.7
2018-07-29T00:10:38.010Z,19.7
2018-07-29T00:11:40.062Z,19.7
2018-07-29T00:12:42.389Z,19.7
2018-07-29T00:13:44.415Z,19.7
2018-07-29T00:14:46.473Z,19.7
2018-07-29T00:15:48.899Z,19.7
2018-07-29T00:16:50.942Z,19.7
2018-07-29T00:17:52.975Z,19.6
2018-07-29T00:18:55.031Z,19.6
2018-07-29T00:19:57.376Z,19.6
2018-07-29T00:20:59.801Z,19.5
2018-07-29T00:22:01.859Z,19.6
2018-07-29T00:23:04.280Z,19.6
2018-07-29T00:24:06.319Z,19.6
2018-07-29T00:25:08.651Z,19.7
2018-07-29T00:26:10.695Z,19.7
2018-07-29T00:27:13.296Z,19.7
2018-07-29T00:28:15.345Z,19.7
2018-07-29T00:29:17.392Z,19.6
2018-07-29T00:30:19.436Z,19.7
2018-07-29T00:31:21.490Z,19.8
2018-07-29T00:32:23.539Z,19.7
2018-07-29T00:33:25.573Z,19.7
2018-07-29T00:34:27.630Z,19.7
2018-07-29T00:35:29.667Z,19.8
2018-07-29T00:36:32.389Z,19.7
2018-07-29T00:37:34.431Z,19.7
2018-07-29T00:38:36.464Z,19.7
2018-07-29T00:39:38.511Z,19.8
2018-07-29T00:40:40.556Z,19.8
2018-07-29T00:41:42.602Z,19.8
2018-07-29T00:42:44.633Z,19.8
2018-07-29T00:43:47.071Z,19.8
2018-07-29T00:44:49.115Z,19.8
2018-07-29T00:45:51.154Z,19.8
2018-07-29T00:46:53.205Z,19.8
2018-07-29T00:47:55.527Z,19.8
2018-07-29T00:48:57.855Z,19.8
2018-07-29T00:49:59.895Z,19.7
2018-07-29T00:51:02.329Z,19.7
2018-07-29T00:52:04.359Z,19.7
2018-07-29T00:53:06.881Z,19.6
2018-07-29T00:54:09.286Z,19.7
2018-07-29T00:55:11.316Z,19.7
2018-07-29T00:56:13.362Z,19.7
2018-07-29T00:57:15.406Z,19.6
2018-07-29T00:58:17.763Z,19.6
2018-07-29T00:59:19.807Z,19.6
2018-07-29T01:00:21.838Z,19.6
2018-07-29T01:01:23.881Z,19.6
2018-07-29T01:02:25.920Z,19.5
2018-07-29T01:03:27.965Z,19.6
2018-07-29T01:04:30.018Z,19.6
2018-07-29T01:05:32.082Z,19.6
2018-07-29T01:06:34.104Z,19.5
2018-07-29T01:07:36.155Z,19.5
2018-07-29T01:08:38.193Z,19.5
2018-07-29T01:09:40.527Z,19.5
2018-07-29T01:10:43.350Z,19.5
2018-07-29T01:11:45.770Z,19.5
2018-07-29T01:12:47.819Z,19.5
2018-07-29T01:13:49.860Z,19.5
2018-07-29T01:14:52.270Z,19.5
2018-07-29T01:15:54.297Z,19.5
2018-07-29T01:16:56.354Z,19.5
2018-07-29T01:17:58.391Z,19.5
2018-07-29T01:19:00.436Z,19.5
2018-07-29T01:20:02.489Z,19.5
2018-07-29T01:21:04.518Z,19.5
2018-07-29T01:22:06.853Z,19.5
2018-07-29T01:23:08.890Z,19.5
2018-07-29T01:24:11.330Z,19.5
2018-07-29T01:25:13.361Z,19.5
2018-07-29T01:26:15.687Z,19.5
2018-07-29T01:27:17.737Z,19.4
2018-07-29T01:28:19.763Z,19.4
2018-07-29T01:29:21.818Z,19.3
2018-07-29T01:30:24.148Z,19.4
2018-07-29T01:31:26.189Z,19.4
2018-07-29T01:32:28.233Z,19.4
2018-07-29T01:33:30.284Z,19.4
2018-07-29T01:34:32.609Z,19.4
2018-07-29T01:35:34.648Z,19.3
2018-07-29T01:36:36.690Z,19.3
2018-07-29T01:37:38.722Z,19.3
2018-07-29T01:38:40.769Z,19.3
2018-07-29T01:39:42.815Z,19.2
2018-07-29T01:40:44.846Z,19.2
2018-07-29T01:41:46.895Z,19.2
2018-07-29T01:42:49.325Z,19.2
2018-07-29T01:43:51.367Z,19.1
2018-07-29T01:44:53.420Z,19
2018-07-29T01:45:55.459Z,19.1
2018-07-29T01:46:57.501Z,19.1
2018-07-29T01:47:59.832Z,19
2018-07-29T01:49:02.169Z,19
2018-07-29T01:50:04.487Z,19
2018-07-29T01:51:06.529Z,19
2018-07-29T01:52:08.575Z,19
2018-07-29T01:53:10.598Z,18.9
2018-07-29T01:54:12.646Z,18.9
2018-07-29T01:55:15.001Z,18.8
2018-07-29T01:56:17.048Z,18.8
2018-07-29T01:57:19.079Z,18.8
2018-07-29T01:58:21.514Z,18.7
2018-07-29T01:59:23.555Z,18.6
2018-07-29T02:00:25.593Z,18.6
2018-07-29T02:01:27.638Z,18.6
2018-07-29T02:02:29.950Z,18.6
2018-07-29T02:03:31.990Z,18.6
2018-07-29T02:04:34.422Z,18.5
2018-07-29T02:05:36.459Z,18.5
2018-07-29T02:06:39.068Z,18.5
2018-07-29T02:07:41.113Z,18.4
2018-07-29T02:08:43.152Z,18.4
2018-07-29T02:09:45.191Z,18.3
2018-07-29T02:10:47.917Z,18.3
2018-07-29T02:11:49.960Z,18.3
2018-07-29T02:12:52.009Z,18.3
2018-07-29T02:13:54.044Z,18.2
2018-07-29T02:14:56.089Z,18.1
2018-07-29T02:15:58.407Z,18.1
2018-07-29T02:17:00.447Z,18.1
2018-07-29T02:18:02.786Z,17.9
2018-07-29T02:19:04.825Z,17.9
2018-07-29T02:20:06.867Z,17.9
2018-07-29T02:21:08.913Z,17.9
2018-07-29T02:22:10.956Z,17.9
2018-07-29T02:23:13.374Z,17.8
2018-07-29T02:24:15.419Z,17.9
2018-07-29T02:25:17.849Z,17.8
2018-07-29T02:26:20.183Z,17.8
2018-07-29T02:27:22.237Z,17.7
2018-07-29T02:28:24.278Z,17.7
2018-07-29T02:29:26.321Z,17.8
2018-07-29T02:30:28.350Z,17.7
2018-07-29T02:31:30.690Z,17.7
2018-07-29T02:32:33.121Z,17.7
2018-07-29T02:33:35.158Z,17.7
2018-07-29T02:34:37.220Z,17.6
2018-07-29T02:35:39.250Z,17.5
2018-07-29T02:36:41.292Z,17.6
2018-07-29T02:37:43.348Z,17.5
2018-07-29T02:38:45.687Z,17.6
2018-07-29T02:39:48.282Z,17.6
2018-07-29T02:40:50.686Z,17.5
2018-07-29T02:41:53.328Z,17.5
2018-07-29T02:42:55.656Z,17.5
2018-07-29T02:43:58.099Z,17.6
2018-07-29T02:45:00.134Z,17.6
2018-07-29T02:46:02.741Z,17.6
2018-07-29T02:47:04.796Z,17.6
2018-07-29T02:48:06.832Z,17.7
2018-07-29T02:49:09.158Z,17.5
2018-07-29T02:50:11.486Z,17.5
2018-07-29T02:51:13.538Z,17.5
2018-07-29T02:52:15.577Z,17.5
2018-07-29T02:53:17.618Z,17.4
2018-07-29T02:54:19.654Z,17.4
2018-07-29T02:55:21.707Z,17.4
2018-07-29T02:56:23.742Z,17.4
2018-07-29T02:57:25.784Z,17.4
2018-07-29T02:58:27.825Z,17.3
2018-07-29T02:59:29.855Z,17.3
2018-07-29T03:00:31.903Z,17.3
2018-07-29T03:01:34.233Z,17.3
2018-07-29T03:02:36.562Z,17.3
2018-07-29T03:03:39.263Z,17.2
2018-07-29T03:04:41.313Z,17.2
2018-07-29T03:05:43.358Z,17.2
2018-07-29T03:06:45.395Z,17.2
2018-07-29T03:07:47.449Z,17.1
2018-07-29T03:08:49.481Z,17.1
2018-07-29T03:09:51.522Z,17.1
2018-07-29T03:10:54.163Z,17.1
2018-07-29T03:11:56.494Z,17.1
2018-07-29T03:12:59.102Z,17
2018-07-29T03:14:01.425Z,17
2018-07-29T03:15:03.756Z,17
2018-07-29T03:16:06.187Z,17
2018-07-29T03:17:08.914Z,16.9
2018-07-29T03:18:10.958Z,16.9
2018-07-29T03:19:12.990Z,16.9
2018-07-29T03:20:15.042Z,16.9
2018-07-29T03:21:17.759Z,16.9
2018-07-29T03:22:20.086Z,17
2018-07-29T03:23:22.132Z,16.9
2018-07-29T03:24:24.163Z,16.9
2018-07-29T03:25:26.598Z,16.9
2018-07-29T03:26:28.635Z,16.9
2018-07-29T03:27:30.679Z,16.8
2018-07-29T03:28:32.723Z,16.9
2018-07-29T03:29:34.760Z,16.9
2018-07-29T03:30:37.077Z,16.8
2018-07-29T03:31:39.434Z,16.8
2018-07-29T03:32:42.032Z,16.9
2018-07-29T03:33:44.081Z,16.8
2018-07-29T03:34:46.209Z,16.8
2018-07-29T03:35:48.448Z,16.8
2018-07-29T03:36:50.479Z,16.8
2018-07-29T03:37:52.927Z,16.8
2018-07-29T03:38:54.968Z,16.7
2018-07-29T03:39:57.000Z,16.7
2018-07-29T03:40:59.054Z,16.7
2018-07-29T03:42:01.379Z,16.6
2018-07-29T03:43:03.712Z,16.7
2018-07-29T03:44:06.055Z,16.6
2018-07-29T03:45:08.096Z,16.6
2018-07-29T03:46:10.129Z,16.5
2018-07-29T03:47:12.171Z,16.5
2018-07-29T03:48:14.211Z,16.4
2018-07-29T03:49:16.254Z,16.5
2018-07-29T03:50:18.302Z,16.4
2018-07-29T03:51:20.339Z,16.4
2018-07-29T03:52:22.375Z,16.4
2018-07-29T03:53:24.432Z,16.4
2018-07-29T03:54:26.744Z,16.3
2018-07-29T03:55:28.790Z,16.3
2018-07-29T03:56:30.830Z,16.3
2018-07-29T03:57:32.863Z,16.2
2018-07-29T03:58:35.294Z,16.2
2018-07-29T03:59:37.333Z,16.2
2018-07-29T04:00:39.379Z,16.3
2018-07-29T04:01:41.408Z,16.2
2018-07-29T04:02:43.456Z,16.2
2018-07-29T04:03:45.494Z,16.2
2018-07-29T04:04:47.925Z,16.1
2018-07-29T04:05:49.968Z,16.2
2018-07-29T04:06:52.278Z,16.1
2018-07-29T04:07:54.318Z,16.1
2018-07-29T04:08:56.362Z,16.1
2018-07-29T04:09:58.404Z,16.1
2018-07-29T04:11:00.434Z,16.1
2018-07-29T04:12:02.898Z,16
2018-07-29T04:13:05.292Z,16
2018-07-29T04:14:07.343Z,16
2018-07-29T04:15:09.371Z,16
2018-07-29T04:16:11.414Z,16
2018-07-29T04:17:13.448Z,16.1
2018-07-29T04:18:15.488Z,16
2018-07-29T04:19:17.533Z,16
2018-07-29T04:20:19.573Z,16.1
2018-07-29T04:21:21.614Z,16.1
2018-07-29T04:22:23.650Z,16
2018-07-29T04:23:25.682Z,16.1
2018-07-29T04:24:27.721Z,16.1
2018-07-29T04:25:29.765Z,16.1
2018-07-29T04:26:31.791Z,16.1
2018-07-29T04:27:33.838Z,16.1
2018-07-29T04:28:35.887Z,16.1
2018-07-29T04:29:37.928Z,16.1
2018-07-29T04:30:40.008Z,16.1
2018-07-29T04:31:42.011Z,16.1
2018-07-29T04:32:44.335Z,16.1
2018-07-29T04:33:46.371Z,16.1
2018-07-29T04:34:48.425Z,16.1
2018-07-29T04:35:50.451Z,16.1
2018-07-29T04:36:52.495Z,16.2
2018-07-29T04:37:54.536Z,16.2
2018-07-29T04:38:56.563Z,16.2
2018-07-29T04:39:58.915Z,16.2
2018-07-29T04:41:00.957Z,16.2
2018-07-29T04:42:03.005Z,16.2
2018-07-29T04:43:05.339Z,16.2
2018-07-29T04:44:07.384Z,16.2
2018-07-29T04:45:09.421Z,16.2
2018-07-29T04:46:11.467Z,16.2
2018-07-29T04:47:13.884Z,16.3
2018-07-29T04:48:15.933Z,16.3
2018-07-29T04:49:17.973Z,16.3
2018-07-29T04:50:20.394Z,16.3
2018-07-29T04:51:22.779Z,16.3
2018-07-29T04:52:24.770Z,16.4
2018-07-29T04:53:26.813Z,16.4
2018-07-29T04:54:29.239Z,16.4
2018-07-29T04:55:31.663Z,16.5
2018-07-29T04:56:33.695Z,16.5
2018-07-29T04:57:36.117Z,16.5
2018-07-29T04:58:38.159Z,16.5
2018-07-29T04:59:40.476Z,16.6
2018-07-29T05:00:42.523Z,16.6
2018-07-29T05:01:44.857Z,16.6
2018-07-29T05:02:47.196Z,16.6
2018-07-29T05:03:49.248Z,16.6
2018-07-29T05:04:51.281Z,16.6
2018-07-29T05:05:53.991Z,16.6
2018-07-29T05:06:56.305Z,16.6
2018-07-29T05:07:58.356Z,16.7
2018-07-29T05:09:00.381Z,16.6
2018-07-29T05:10:02.710Z,16.7
2018-07-29T05:11:05.161Z,16.8
2018-07-29T05:12:07.185Z,16.8
2018-07-29T05:13:09.237Z,16.8
2018-07-29T05:14:11.280Z,16.8
2018-07-29T05:15:13.322Z,16.8
2018-07-29T05:16:15.353Z,16.9
2018-07-29T05:17:17.788Z,16.9
2018-07-29T05:18:19.829Z,16.9
2018-07-29T05:19:21.862Z,16.9
2018-07-29T05:20:23.909Z,17
2018-07-29T05:21:25.939Z,17
2018-07-29T05:22:27.979Z,17
2018-07-29T05:23:30.014Z,17.1
2018-07-29T05:24:32.052Z,17.1
2018-07-29T05:25:34.101Z,17.1
2018-07-29T05:26:36.143Z,17.1
2018-07-29T05:27:38.182Z,17.1
2018-07-29T05:28:40.225Z,17.2
2018-07-29T05:29:42.537Z,17.2
2018-07-29T05:30:44.962Z,17.2
2018-07-29T05:31:47.010Z,17.2
2018-07-29T05:32:49.041Z,17.2
2018-07-29T05:33:51.087Z,17.2
2018-07-29T05:34:53.125Z,17.2
2018-07-29T05:35:55.164Z,17.2
2018-07-29T05:36:57.216Z,17.3
2018-07-29T05:37:59.539Z,17.3
2018-07-29T05:39:01.864Z,17.3
2018-07-29T05:40:04.488Z,17.4
2018-07-29T05:41:06.534Z,17.4
2018-07-29T05:42:08.562Z,17.4
2018-07-29T05:43:10.606Z,17.5
2018-07-29T05:44:13.040Z,17.5
2018-07-29T05:45:15.080Z,17.5
2018-07-29T05:46:17.497Z,17.5
2018-07-29T05:47:19.537Z,17.5
2018-07-29T05:48:21.582Z,17.6
2018-07-29T05:49:23.612Z,17.6
2018-07-29T05:50:25.661Z,17.6
2018-07-29T05:51:27.698Z,17.6
2018-07-29T05:52:29.734Z,17.7
2018-07-29T05:53:31.791Z,17.8
2018-07-29T05:54:34.112Z,17.8
2018-07-29T05:55:36.194Z,17.8
2018-07-29T05:56:38.196Z,17.8
2018-07-29T05:57:40.621Z,17.9
2018-07-29T05:58:43.032Z,17.9
2018-07-29T05:59:45.372Z,18
2018-07-29T06:00:47.403Z,18
2018-07-29T06:01:49.444Z,18
2018-07-29T06:02:51.475Z,18
2018-07-29T06:03:53.515Z,18
2018-07-29T06:04:55.563Z,18.1
2018-07-29T06:05:57.594Z,18.1
2018-07-29T06:06:59.647Z,18.1
2018-07-29T06:08:02.075Z,18.1
2018-07-29T06:09:04.116Z,18.1
2018-07-29T06:10:06.171Z,18.3
2018-07-29T06:11:08.205Z,18.3
2018-07-29T06:12:10.246Z,18.3
2018-07-29T06:13:12.290Z,18.3
2018-07-29T06:14:14.632Z,18.3
2018-07-29T06:15:17.228Z,18.4
2018-07-29T06:16:19.652Z,18.4
2018-07-29T06:17:21.694Z,18.4
2018-07-29T06:18:23.728Z,18.4
2018-07-29T06:19:25.781Z,18.5
2018-07-29T06:20:28.211Z,18.5
2018-07-29T06:21:30.254Z,18.5
2018-07-29T06:22:32.568Z,18.6
2018-07-29T06:23:34.621Z,18.6
2018-07-29T06:24:36.660Z,18.5
2018-07-29T06:25:38.761Z,18.6
2018-07-29T06:26:40.743Z,18.6
2018-07-29T06:27:42.775Z,18.7
2018-07-29T06:28:44.813Z,18.7
2018-07-29T06:29:46.863Z,18.8
2018-07-29T06:30:48.898Z,18.8
2018-07-29T06:31:50.927Z,18.8
2018-07-29T06:32:52.971Z,18.8
2018-07-29T06:33:55.011Z,18.9
2018-07-29T06:34:57.055Z,19
2018-07-29T06:35:59.112Z,19
2018-07-29T06:37:01.157Z,19
2018-07-29T06:38:03.199Z,19
2018-07-29T06:39:05.257Z,19
2018-07-29T06:40:07.296Z,19.2
2018-07-29T06:41:09.625Z,19.2
2018-07-29T06:42:11.666Z,19.1
2018-07-29T06:43:13.996Z,19.2
2018-07-29T06:44:16.043Z,19.2
2018-07-29T06:45:18.084Z,19.2
2018-07-29T06:46:20.129Z,19.3
2018-07-29T06:47:22.160Z,19.3
2018-07-29T06:48:24.211Z,19.3
2018-07-29T06:49:26.616Z,19.3
2018-07-29T06:50:29.057Z,19.4
2018-07-29T06:51:31.111Z,19.4
2018-07-29T06:52:33.526Z,19.5
2018-07-29T06:53:35.855Z,19.5
2018-07-29T06:54:38.174Z,19.5
2018-07-29T06:55:40.225Z,19.5
2018-07-29T06:56:42.559Z,19.5
2018-07-29T06:57:44.602Z,19.5
2018-07-29T06:58:46.940Z,19.6
2018-07-29T06:59:48.973Z,19.5
2018-07-29T07:00:51.026Z,19.5
2018-07-29T07:01:53.068Z,19.6
2018-07-29T07:02:55.102Z,19.7
2018-07-29T07:03:57.145Z,19.6
2018-07-29T07:04:59.195Z,19.7
2018-07-29T07:06:01.242Z,19.7
2018-07-29T07:07:03.875Z,19.8
2018-07-29T07:08:05.919Z,19.8
2018-07-29T07:09:07.950Z,19.9
2018-07-29T07:10:09.994Z,19.9
2018-07-29T07:11:12.431Z,19.9
2018-07-29T07:12:14.462Z,20
2018-07-29T07:13:16.792Z,20
2018-07-29T07:14:18.835Z,20
2018-07-29T07:15:20.886Z,20
2018-07-29T07:16:23.301Z,20
2018-07-29T07:17:25.350Z,20
2018-07-29T07:18:27.677Z,20
2018-07-29T07:19:29.725Z,20
2018-07-29T07:20:32.145Z,20.1
2018-07-29T07:21:34.206Z,20.2
2018-07-29T07:22:36.249Z,20.3
2018-07-29T07:23:38.293Z,20.4
2018-07-29T07:24:40.347Z,20.4
2018-07-29T07:25:42.383Z,20.4
2018-07-29T07:26:44.425Z,20.4
2018-07-29T07:27:46.466Z,20.4
2018-07-29T07:28:48.812Z,20.3
2018-07-29T07:29:50.845Z,20.5
2018-07-29T07:30:52.888Z,20.5
2018-07-29T07:31:54.937Z,20.5
2018-07-29T07:32:56.972Z,20.5
2018-07-29T07:33:59.029Z,20.4
2018-07-29T07:35:01.080Z,20.6
2018-07-29T07:36:03.117Z,20.6
2018-07-29T07:37:05.162Z,20.6
2018-07-29T07:38:07.220Z,20.5
2018-07-29T07:39:09.265Z,20.6
2018-07-29T07:40:11.343Z,20.5
2018-07-29T07:41:14.030Z,20.6
2018-07-29T07:42:16.062Z,20.6
2018-07-29T07:43:18.397Z,20.7
2018-07-29T07:44:20.451Z,20.8
2018-07-29T07:45:22.889Z,20.7
2018-07-29T07:46:24.938Z,20.7
2018-07-29T07:47:26.986Z,20.7
2018-07-29T07:48:29.032Z,20.7
2018-07-29T07:49:31.090Z,20.8
2018-07-29T07:50:33.417Z,20.8
2018-07-29T07:51:35.464Z,20.8
2018-07-29T07:52:37.505Z,20.8
2018-07-29T07:53:39.564Z,20.9
2018-07-29T07:54:41.619Z,20.9
2018-07-29T07:55:43.664Z,20.8
2018-07-29T07:56:45.707Z,20.8
2018-07-29T07:57:48.048Z,20.9
2018-07-29T07:58:50.082Z,20.9
2018-07-29T07:59:52.126Z,20.9
2018-07-29T08:00:54.550Z,20.9
2018-07-29T08:01:56.616Z,21
2018-07-29T08:02:59.022Z,21
2018-07-29T08:04:01.071Z,21.1
2018-07-29T08:05:03.117Z,21.1
2018-07-29T08:06:05.149Z,21.1
2018-07-29T08:07:07.208Z,21.1
2018-07-29T08:08:09.249Z,21.2
2018-07-29T08:09:11.686Z,21.4
2018-07-29T08:10:14.120Z,21.4
2018-07-29T08:11:16.563Z,21.4
2018-07-29T08:12:18.608Z,21.4
2018-07-29T08:13:20.935Z,21.4
2018-07-29T08:14:22.980Z,21.4
2018-07-29T08:15:25.015Z,21.4
2018-07-29T08:16:27.114Z,21.4
2018-07-29T08:17:29.112Z,21.5
2018-07-29T08:18:31.145Z,21.5
2018-07-29T08:19:33.192Z,21.6
2018-07-29T08:20:35.239Z,21.5
2018-07-29T08:21:37.577Z,21.6
2018-07-29T08:22:39.633Z,21.6
2018-07-29T08:23:41.674Z,21.6
2018-07-29T08:24:44.001Z,21.6
2018-07-29T08:25:46.039Z,21.7
2018-07-29T08:26:48.098Z,21.6
2018-07-29T08:27:50.130Z,21.8
2018-07-29T08:28:52.177Z,21.9
2018-07-29T08:29:54.225Z,22.1
2018-07-29T08:30:56.273Z,22.1
2018-07-29T08:31:58.307Z,22.1
2018-07-29T08:33:00.356Z,22.1
2018-07-29T08:34:02.682Z,22.1
2018-07-29T08:35:04.739Z,22.1
2018-07-29T08:36:06.775Z,22.3
2018-07-29T08:37:08.822Z,22.4
2018-07-29T08:38:10.877Z,22.3
2018-07-29T08:39:12.913Z,22.5
2018-07-29T08:40:14.969Z,22.6
2018-07-29T08:41:17.013Z,22.7
2018-07-29T08:42:19.053Z,22.8
2018-07-29T08:43:21.102Z,23
2018-07-29T08:44:23.158Z,23.1
2018-07-29T08:45:25.279Z,23.1
2018-07-29T08:46:27.671Z,23.1
2018-07-29T08:47:29.715Z,23.2
2018-07-29T08:48:31.750Z,23.4
2018-07-29T08:49:33.798Z,23.4
2018-07-29T08:50:35.850Z,23.6
2018-07-29T08:51:37.887Z,23.4
2018-07-29T08:52:39.943Z,23.5
2018-07-29T08:53:42.388Z,23.8
2018-07-29T08:54:44.425Z,24
2018-07-29T08:55:46.485Z,23.9
2018-07-29T08:56:48.537Z,24.2
2018-07-29T08:57:50.589Z,24.3
2018-07-29T08:58:52.627Z,24.2
2018-07-29T08:59:54.689Z,24.3
2018-07-29T09:00:56.733Z,24.3
2018-07-29T09:01:58.786Z,24.3
2018-07-29T09:03:00.832Z,24.1
2018-07-29T09:04:03.288Z,24.2
2018-07-29T09:05:05.289Z,24
2018-07-29T09:06:07.338Z,23.7
2018-07-29T09:07:09.393Z,23.8
2018-07-29T09:08:11.722Z,23.8
2018-07-29T09:09:13.783Z,24.2
2018-07-29T09:10:16.128Z,23.4
2018-07-29T09:11:18.174Z,23.6
2018-07-29T09:12:20.230Z,23.2
2018-07-29T09:13:22.573Z,23.6
2018-07-29T09:14:24.622Z,23.8
2018-07-29T09:15:26.681Z,23.6
2018-07-29T09:16:28.733Z,23.9
2018-07-29T09:17:31.052Z,24
2018-07-29T09:18:33.099Z,24.3
2018-07-29T09:19:35.150Z,24.3
2018-07-29T09:20:37.504Z,24.3
2018-07-29T09:21:39.632Z,24.2
2018-07-29T09:22:41.610Z,24.2
2018-07-29T09:23:43.653Z,24.5
2018-07-29T09:24:45.711Z,24.7
2018-07-29T09:25:48.056Z,24.7
2018-07-29T09:26:50.105Z,24.6
2018-07-29T09:27:52.536Z,24.7
2018-07-29T09:28:54.575Z,24.8
2018-07-29T09:29:57.032Z,24.9
2018-07-29T09:30:59.110Z,24.8
2018-07-29T09:32:01.126Z,24.9
2018-07-29T09:33:03.165Z,25
2018-07-29T09:34:05.519Z,25.6
2018-07-29T09:35:07.870Z,25.5
2018-07-29T09:36:10.202Z,25.1
2018-07-29T09:37:12.939Z,25.3
2018-07-29T09:38:15.015Z,25.1
2018-07-29T09:39:17.065Z,25.4
2018-07-29T09:40:19.108Z,25.4
2018-07-29T09:41:21.495Z,25
2018-07-29T09:42:23.536Z,25.1
2018-07-29T09:43:25.588Z,25
2018-07-29T09:44:27.933Z,24.8
2018-07-29T09:45:29.987Z,25
2018-07-29T09:46:32.707Z,25.1
2018-07-29T09:47:34.760Z,25.6
2018-07-29T09:48:36.815Z,25.8
2018-07-29T09:49:38.876Z,25.9
2018-07-29T09:50:40.925Z,26.1
2018-07-29T09:51:42.976Z,26.1
2018-07-29T09:52:45.032Z,26
2018-07-29T09:53:47.373Z,26.2
2018-07-29T09:54:49.528Z,26.5
2018-07-29T09:55:51.494Z,26.5
2018-07-29T09:56:53.823Z,26.7
2018-07-29T09:57:55.886Z,26.7
2018-07-29T09:58:58.215Z,26.3
2018-07-29T10:00:00.266Z,26.6
2018-07-29T10:01:02.318Z,26.1
2018-07-29T10:02:04.363Z,25.8
2018-07-29T10:03:06.862Z,26
2018-07-29T10:04:08.903Z,26.4
2018-07-29T10:05:11.353Z,25.9
2018-07-29T10:06:13.411Z,26.2
2018-07-29T10:07:15.477Z,26.7
2018-07-29T10:08:17.546Z,27
2018-07-29T10:09:19.622Z,26.9
2018-07-29T10:10:21.663Z,26.6
2018-07-29T10:11:23.707Z,26.8
2018-07-29T10:12:25.769Z,26.7
2018-07-29T10:13:28.105Z,26.8
2018-07-29T10:14:30.558Z,26.9
2018-07-29T10:15:32.643Z,26.9
2018-07-29T10:16:34.658Z,27.1
2018-07-29T10:17:36.721Z,27
2018-07-29T10:18:38.769Z,26.9
2018-07-29T10:19:40.835Z,26.7
2018-07-29T10:20:42.903Z,27.1
2018-07-29T10:21:44.938Z,27.3
2018-07-29T10:22:46.993Z,27.1
2018-07-29T10:23:49.068Z,27.1
2018-07-29T10:24:51.806Z,26.9
2018-07-29T10:25:53.863Z,27.1
2018-07-29T10:26:55.918Z,27
2018-07-29T10:27:58.244Z,26.8
2018-07-29T10:29:00.307Z,26.5
2018-07-29T10:30:02.370Z,26.9
2018-07-29T10:31:04.413Z,27.1
2018-07-29T10:32:06.861Z,27.4
2018-07-29T10:33:08.917Z,27
2018-07-29T10:34:10.977Z,26.8
2018-07-29T10:35:13.042Z,27.1
2018-07-29T10:36:15.090Z,27.3
2018-07-29T10:37:17.146Z,27.3
2018-07-29T10:38:19.199Z,27.4
2018-07-29T10:39:21.269Z,27.9
2018-07-29T10:40:23.318Z,28
2018-07-29T10:41:25.377Z,27.7
2018-07-29T10:42:27.437Z,27.5
2018-07-29T10:43:29.484Z,27.9
2018-07-29T10:44:31.555Z,27.6
2018-07-29T10:45:33.899Z,27.6
2018-07-29T10:46:35.963Z,27.8
2018-07-29T10:47:38.009Z,27.9
2018-07-29T10:48:40.077Z,27.9
2018-07-29T10:49:42.425Z,28
2018-07-29T10:50:44.471Z,28.5
2018-07-29T10:51:46.539Z,28.5
2018-07-29T10:52:48.589Z,28.4
2018-07-29T10:53:50.647Z,28
2018-07-29T10:54:52.715Z,28.1
2018-07-29T10:55:55.065Z,28.5
2018-07-29T10:56:57.496Z,28.3
2018-07-29T10:57:59.947Z,28.1
2018-07-29T10:59:02.002Z,28.1
2018-07-29T11:00:04.449Z,28.5
2018-07-29T11:01:06.806Z,27.9
2018-07-29T11:02:08.866Z,28
2018-07-29T11:03:11.502Z,28.4
2018-07-29T11:04:13.551Z,28.6
2018-07-29T11:05:16.083Z,28.4
2018-07-29T11:06:18.530Z,28.4
2018-07-29T11:07:20.595Z,28.4
2018-07-29T11:08:22.661Z,28.8
2018-07-29T11:09:25.103Z,28.2
2018-07-29T11:10:27.165Z,28.3
2018-07-29T11:11:29.263Z,28.4
2018-07-29T11:12:31.292Z,28.4
2018-07-29T11:13:33.381Z,28.4
2018-07-29T11:14:35.689Z,29
2018-07-29T11:15:37.752Z,28.2
2018-07-29T11:16:40.082Z,28.2
2018-07-29T11:17:42.438Z,28.4
2018-07-29T11:18:44.501Z,28.1
2018-07-29T11:19:46.569Z,28.6
2018-07-29T11:20:48.620Z,28.8
2018-07-29T11:21:50.993Z,28.6
2018-07-29T11:22:53.441Z,28.6
2018-07-29T11:23:55.544Z,28.6
2018-07-29T11:24:57.572Z,28.7
2018-07-29T11:25:59.914Z,28.9
2018-07-29T11:27:01.975Z,28.7
2018-07-29T11:28:04.430Z,28.6
2018-07-29T11:29:06.487Z,28.4
2018-07-29T11:30:08.538Z,28.4
2018-07-29T11:31:10.600Z,28.4
2018-07-29T11:32:12.661Z,28.3
2018-07-29T11:33:14.723Z,28.4
2018-07-29T11:34:17.112Z,28.3
2018-07-29T11:35:19.172Z,29.2
2018-07-29T11:36:21.230Z,29.4
2018-07-29T11:37:23.305Z,29.4
2018-07-29T11:38:25.361Z,29.3
2018-07-29T11:39:27.427Z,29
2018-07-29T11:40:29.487Z,29.6
2018-07-29T11:41:31.571Z,29.4
2018-07-29T11:42:33.608Z,28.8
2018-07-29T11:43:35.666Z,29
2018-07-29T11:44:37.731Z,29.7
2018-07-29T11:45:39.780Z,29.3
2018-07-29T11:46:41.852Z,29
2018-07-29T11:47:43.910Z,29.2
2018-07-29T11:48:45.993Z,29.1
2018-07-29T11:49:48.064Z,29.6
2018-07-29T11:50:50.120Z,29.6
2018-07-29T11:51:52.261Z,29.9
2018-07-29T11:52:54.241Z,29.5
2018-07-29T11:53:56.312Z,29.4
2018-07-29T11:54:58.366Z,29.6
2018-07-29T11:56:00.429Z,29.8
2018-07-29T11:57:03.088Z,29.5
2018-07-29T11:58:05.139Z,29
2018-07-29T11:59:07.616Z,29.3
2018-07-29T12:00:09.966Z,29.5
2018-07-29T12:01:12.301Z,29.3
2018-07-29T12:02:14.360Z,29.4
2018-07-29T12:03:16.429Z,29.1
2018-07-29T12:04:18.494Z,28.5
2018-07-29T12:05:20.554Z,28.5
2018-07-29T12:06:22.918Z,28.2
2018-07-29T12:07:24.975Z,28.1
2018-07-29T12:08:27.033Z,28
2018-07-29T12:09:29.392Z,28
2018-07-29T12:10:31.447Z,28.1
2018-07-29T12:11:33.516Z,28.3
2018-07-29T12:12:35.578Z,27.8
2018-07-29T12:13:37.640Z,27.6
2018-07-29T12:14:39.711Z,28.1
2018-07-29T12:15:42.048Z,28.3
2018-07-29T12:16:44.111Z,28.9
2018-07-29T12:17:46.165Z,29.3
2018-07-29T12:18:48.223Z,29.3
2018-07-29T12:19:50.298Z,29.1
2018-07-29T12:20:52.360Z,29.3
2018-07-29T12:21:54.422Z,29.4
2018-07-29T12:22:56.492Z,29.4
2018-07-29T12:23:58.540Z,29.6
2018-07-29T12:25:00.616Z,29.7
2018-07-29T12:26:02.662Z,29.6
2018-07-29T12:27:04.733Z,29.8
2018-07-29T12:28:06.834Z,29.8
2018-07-29T12:29:08.847Z,30
2018-07-29T12:30:10.911Z,29.9
2018-07-29T12:31:12.962Z,29.7
2018-07-29T12:32:15.030Z,29.7
2018-07-29T12:33:17.092Z,29.5
2018-07-29T12:34:19.146Z,29.4
2018-07-29T12:35:21.265Z,29.9
2018-07-29T12:36:23.284Z,30.1
2018-07-29T12:37:25.344Z,30.3
2018-07-29T12:38:27.406Z,30.3
2018-07-29T12:39:29.978Z,30.5
2018-07-29T12:40:32.204Z,30.5
2018-07-29T12:41:34.266Z,30.7
2018-07-29T12:42:36.335Z,30.4
2018-07-29T12:43:38.386Z,30
2018-07-29T12:44:41.189Z,30.4
2018-07-29T12:45:43.256Z,30.6
2018-07-29T12:46:45.319Z,30.3
2018-07-29T12:47:47.397Z,30.2
2018-07-29T12:48:49.456Z,29.8
2018-07-29T12:49:51.519Z,30
2018-07-29T12:50:53.574Z,29.8
2018-07-29T12:51:56.270Z,30
2018-07-29T12:52:58.363Z,30.1
2018-07-29T12:54:00.499Z,30.3
2018-07-29T12:55:02.952Z,30.8
2018-07-29T12:56:05.022Z,30.4
2018-07-29T12:57:07.074Z,30.4
2018-07-29T12:58:09.150Z,30.3
2018-07-29T12:59:11.208Z,29.8
2018-07-29T13:00:13.279Z,29.7
2018-07-29T13:01:15.335Z,29.8
2018-07-29T13:02:17.395Z,30
2018-07-29T13:03:19.494Z,29.7
2018-07-29T13:04:21.545Z,30.3
2018-07-29T13:05:24.200Z,30.4
2018-07-29T13:06:26.572Z,30.3
2018-07-29T13:07:28.631Z,30.4
2018-07-29T13:08:30.711Z,30.6
2018-07-29T13:09:32.782Z,30.3
2018-07-29T13:10:35.159Z,29.9
2018-07-29T13:11:37.504Z,29.9
2018-07-29T13:12:40.260Z,30
2018-07-29T13:13:42.313Z,29.9
2018-07-29T13:14:44.665Z,30.3
2018-07-29T13:15:47.117Z,30.3
2018-07-29T13:16:49.169Z,30.2
2018-07-29T13:17:51.241Z,29.9
2018-07-29T13:18:53.306Z,30.1
2018-07-29T13:19:55.702Z,30.6
2018-07-29T13:20:57.737Z,30.6
2018-07-29T13:21:59.794Z,30.1
2018-07-29T13:23:01.856Z,30
2018-07-29T13:24:03.918Z,30.1
2018-07-29T13:25:06.291Z,30.3
2018-07-29T13:26:08.348Z,30.1
2018-07-29T13:27:10.409Z,30.3
2018-07-29T13:28:12.772Z,30
2018-07-29T13:29:15.148Z,30.4
2018-07-29T13:30:17.191Z,30.7
2018-07-29T13:31:19.599Z,30.5
2018-07-29T13:32:21.630Z,30.1
2018-07-29T13:33:23.686Z,30
2018-07-29T13:34:25.754Z,30.6
2018-07-29T13:35:28.111Z,30.5
2018-07-29T13:36:30.178Z,30.4
2018-07-29T13:37:32.754Z,30.6
2018-07-29T13:38:34.789Z,31
2018-07-29T13:39:37.246Z,31.3
2018-07-29T13:40:39.304Z,31.3
2018-07-29T13:41:41.652Z,30.9
2018-07-29T13:42:44.111Z,30.9
2018-07-29T13:43:46.268Z,31.3
2018-07-29T13:44:48.244Z,31
2018-07-29T13:45:50.310Z,31.7
2018-07-29T13:46:52.367Z,31.5
2018-07-29T13:47:54.429Z,31.6
2018-07-29T13:48:56.496Z,31.2
2018-07-29T13:49:58.549Z,31.7
2018-07-29T13:51:00.619Z,31.2
2018-07-29T13:52:02.679Z,31